Observation data for Seagraves on 03/23/2019      Previous  Date  Next       Current Mesonet Observations  Soil Data  Daily Summary Page  Observations in Plain Language
KSGV 230500Z 19008KT 12/10 A2998 RMK A01 T01190098  RH  090%=      5-min Rain = 0
KSGV 230505Z 19008KT 12/10 A2998 RMK A01 T01170097  RH  090%=      5-min Rain = 0
KSGV 230510Z 18008KT 11/10 A2998 RMK A01 T01140095  RH  091%=      5-min Rain = 0
KSGV 230515Z 19008KT 11/10 A2998 RMK A01 T01120095  RH  092%=      5-min Rain = 0
KSGV 230520Z 19008KT 11/10 A2998 RMK A01 T01130096  RH  092%=      5-min Rain = 0
KSGV 230525Z 19008KT 11/10 A2998 RMK A01 T01140096  RH  092%=      5-min Rain = 0
KSGV 230530Z 19008KT 11/10 A2998 RMK A01 T01140097  RH  092%=      5-min Rain = 0
KSGV 230535Z 19009KT 12/10 A2998 RMK A01 T01160098  RH  091%=      5-min Rain = 0
KSGV 230540Z 19009KT 12/10 A2998 RMK A01 T01150096  RH  091%=      5-min Rain = 0
KSGV 230545Z 19010KT 11/10 A2998 RMK A01 T01140097  RH  092%=      5-min Rain = 0
KSGV 230550Z 19009KT 11/10 A2998 RMK A01 T01140097  RH  092%=      5-min Rain = 0
KSGV 230555Z 19009KT 11/10 A2998 RMK A01 T01130097  RH  093%=      5-min Rain = 0
KSGV 230600Z 19010KT 11/10 A2998 RMK A01 T01120096  RH  093%=      5-min Rain = 0
KSGV 230605Z 19010KT 11/10 A2998 RMK A01 T01120097  RH  093%=      5-min Rain = 0
KSGV 230610Z 18009KT 11/10 A2998 RMK A01 T01120097  RH  093%=      5-min Rain = 0
KSGV 230615Z 18009KT 11/10 A2998 RMK A01 T01100096  RH  094%=      5-min Rain = 0
KSGV 230620Z 18008KT 11/10 A2998 RMK A01 T01100096  RH  094%=      5-min Rain = 0
KSGV 230625Z 18008KT 11/10 A2998 RMK A01 T01100096  RH  094%=      5-min Rain = 0
KSGV 230630Z 18008KT 11/10 A2998 RMK A01 T01080095  RH  094%=      5-min Rain = 0
KSGV 230635Z 18009KT 11/09 A2998 RMK A01 T01070094  RH  095%=      5-min Rain = 0
KSGV 230640Z 18009KT 11/09 A2998 RMK A01 T01060094  RH  095%=      5-min Rain = 0
KSGV 230645Z 19008KT 11/09 A2998 RMK A01 T01050092  RH  095%=      5-min Rain = 0
KSGV 230650Z 19008KT 10/09 A2998 RMK A01 T01040092  RH  095%=      5-min Rain = 0
KSGV 230655Z 19008KT 10/09 A2998 RMK A01 T01030091  RH  096%=      5-min Rain = 0
KSGV 230700Z 19008KT 10/09 A2998 RMK A01 T01020092  RH  096%=      5-min Rain = 0
KSGV 230705Z 19009KT 10/09 A2998 RMK A01 T01020091  RH  096%=      5-min Rain = 0
KSGV 230710Z 21008KT 10/09 A2998 RMK A01 T01020091  RH  096%=      5-min Rain = 0
KSGV 230715Z 26007KT 10/09 A2999 RMK A01 T00980087  RH  095%=      5-min Rain = 0
KSGV 230720Z 26008KT 09/08 A2999 RMK A01 T00910080  RH  096%=      5-min Rain = 0
KSGV 230725Z 22009KT 10/09 A2999 RMK A01 T00970089  RH  097%=      5-min Rain = 0
KSGV 230730Z 20009KT 10/09 A2998 RMK A01 T01030094  RH  097%=      5-min Rain = 0
KSGV 230735Z 21009KT 11/10 A2999 RMK A01 T01050095  RH  097%=      5-min Rain = 0
KSGV 230740Z 21009KT 11/10 A2999 RMK A01 T01060096  RH  097%=      5-min Rain = 0
KSGV 230745Z 22009KT 11/10 A2999 RMK A01 T01070097  RH  097%=      5-min Rain = 0
KSGV 230750Z 25008KT 11/09 A2999 RMK A01 T01050094  RH  096%=      5-min Rain = 0
KSGV 230755Z 24009KT 11/10 A2999 RMK A01 T01050095  RH  097%=      5-min Rain = 0
KSGV 230800Z 24008KT 10/09 A30 RMK A01 T01020092  RH  096%=      5-min Rain = 0
KSGV 230805Z 25008KT 10/09 A30 RMK A01 T01000091  RH  097%=      5-min Rain = 0
KSGV 230810Z 24007KT 10/09 A2999 RMK A01 T01000091  RH  097%=      5-min Rain = 0
KSGV 230815Z 24007KT 10/09 A2999 RMK A01 T00980090  RH  097%=      5-min Rain = 0
KSGV 230820Z 25007KT 10/09 A30 RMK A01 T00970088  RH  097%=      5-min Rain = 0
KSGV 230825Z 27006KT 10/09 A30 RMK A01 T00970089  RH  098%=      5-min Rain = 0
KSGV 230830Z 23008KT 10/09 A2999 RMK A01 T00990092  RH  098%=      5-min Rain = 0
KSGV 230835Z 24008KT 10/09 A2999 RMK A01 T00990091  RH  098%=      5-min Rain = 0
KSGV 230840Z 26007KT 10/09 A2999 RMK A01 T00990091  RH  098%=      5-min Rain = 0
KSGV 230845Z 25007KT 10/09 A2999 RMK A01 T01010093  RH  098%=      5-min Rain = 0
KSGV 230850Z 26008KT 10/09 A30 RMK A01 T01020094  RH  098%=      5-min Rain = 0
KSGV 230855Z 26007KT 10/09 A30 RMK A01 T01010093  RH  098%=      5-min Rain = 0
KSGV 230900Z 26007KT 10/09 A2999 RMK A01 T01010093  RH  098%=      5-min Rain = 0
KSGV 230905Z 27008KT 10/09 A2999 RMK A01 T01010093  RH  098%=      5-min Rain = 0
KSGV 230910Z 27008KT 10/10 A2999 RMK A01 T01030095  RH  098%=      5-min Rain = 0
KSGV 230915Z 27008KT 10/10 A2999 RMK A01 T01030095  RH  098%=      5-min Rain = 0
KSGV 230920Z 27010KT 10/10 A2999 RMK A01 T01040096  RH  098%=      5-min Rain = 0
KSGV 230925Z 26011G16KT 11/10 A2999 RMK A01 T01070098  RH  098%=      5-min Rain = 0
KSGV 230930Z 26011KT 11/10 A2999 RMK A01 T01110102  RH  098%=      5-min Rain = 0
KSGV 230935Z 25012KT 11/10 A2999 RMK A01 T01120103  RH  097%=      5-min Rain = 0
KSGV 230940Z 25012KT 11/10 A2999 RMK A01 T01130104  RH  097%=      5-min Rain = 0
KSGV 230945Z 24011KT 11/10 A2999 RMK A01 T01130103  RH  097%=      5-min Rain = 0
KSGV 230950Z 25011KT 11/10 A2999 RMK A01 T01120102  RH  097%=      5-min Rain = 0
KSGV 230955Z 25013KT 11/10 A2999 RMK A01 T01100100  RH  097%=      5-min Rain = 0
KSGV 231000Z 25013KT 11/10 A2999 RMK A01 T01090099  RH  097%=      5-min Rain = 0
KSGV 231005Z 25012KT 11/10 A2999 RMK A01 T01080099  RH  097%=      5-min Rain = 0
KSGV 231010Z 25012KT 11/10 A2999 RMK A01 T01050097  RH  097%=      5-min Rain = 0
KSGV 231015Z 25009KT 10/10 A2999 RMK A01 T01030095  RH  098%=      5-min Rain = 0
KSGV 231020Z 25009KT 10/09 A2999 RMK A01 T01000092  RH  098%=      5-min Rain = 0
KSGV 231025Z 25010KT 10/09 A2999 RMK A01 T00970090  RH  098%=      5-min Rain = 0
KSGV 231030Z 25008KT 10/09 A2999 RMK A01 T00950088  RH  098%=      5-min Rain = 0
KSGV 231035Z 24007KT 09/09 A2999 RMK A01 T00930086  RH  098%=      5-min Rain = 0
KSGV 231040Z 24006KT 09/08 A2999 RMK A01 T00900083  RH  098%=      5-min Rain = 0
KSGV 231045Z 24006KT 09/08 A2999 RMK A01 T00870081  RH  098%=      5-min Rain = 0
KSGV 231050Z 24007KT 09/08 A2999 RMK A01 T00850079  RH  099%=      5-min Rain = 0
KSGV 231055Z 25006KT 08/08 A2999 RMK A01 T00830077  RH  099%=      5-min Rain = 0
KSGV 231100Z 25006KT 08/08 A30 RMK A01 T00820076  RH  099%=      5-min Rain = 0
KSGV 231105Z 26006KT 08/08 A30 RMK A01 T00810075  RH  099%=      5-min Rain = 0
KSGV 231110Z 27006KT 08/08 A30 RMK A01 T00820077  RH  099%=      5-min Rain = 0
KSGV 231115Z 26006KT 08/08 A30 RMK A01 T00830078  RH  099%=      5-min Rain = 0
KSGV 231120Z 25006KT 08/08 A30 RMK A01 T00800075  RH  099%=      5-min Rain = 0
KSGV 231125Z 25006KT 08/07 A30 RMK A01 T00770072  RH  099%=      5-min Rain = 0
KSGV 231130Z 24004KT 07/07 A3001 RMK A01 T00730069  RH  099%=      5-min Rain = 0
KSGV 231135Z 24004KT 07/07 A3001 RMK A01 T00690065  RH  099%=      5-min Rain = 0
KSGV 231140Z 24003KT 07/06 A3001 RMK A01 T00670062  RH  099%=      5-min Rain = 0
KSGV 231145Z 26004KT 07/06 A3001 RMK A01 T00650060  RH  100%=      5-min Rain = 0
KSGV 231150Z 26004KT 06/06 A3001 RMK A01 T00600056  RH  099%=      5-min Rain = 0
KSGV 231155Z 26004KT 06/05 A3001 RMK A01 T00550051  RH  099%=      5-min Rain = 0
KSGV 231200Z 25005KT 05/05 A3002 RMK A01 T00510047  RH  099%=      5-min Rain = 0
KSGV 231205Z 25004KT 05/05 A3002 RMK A01 T00500046  RH  099%=      5-min Rain = 0
KSGV 231210Z 25005KT 05/05 A3002 RMK A01 T00490046  RH  100%=      5-min Rain = 0
KSGV 231215Z 25006KT 05/04 A3002 RMK A01 T00470043  RH  100%=      5-min Rain = 0
KSGV 231220Z 25006KT 05/04 A3002 RMK A01 T00460043  RH  100%=      5-min Rain = 0
KSGV 231225Z 24006KT 04/04 A3002 RMK A01 T00440041  RH  100%=      5-min Rain = 0
KSGV 231230Z 24005KT 04/04 A3002 RMK A01 T00430040  RH  100%=      5-min Rain = 0
KSGV 231235Z 24005KT 04/04 A3003 RMK A01 T00410038  RH  100%=      5-min Rain = 0
KSGV 231240Z 24005KT 04/04 A3003 RMK A01 T00400036  RH  100%=      5-min Rain = 0
KSGV 231245Z 25006KT 04/04 A3003 RMK A01 T00380035  RH  100%=      5-min Rain = 0
KSGV 231250Z 25006KT 04/03 A3003 RMK A01 T00360032  RH  099%=      5-min Rain = 0
KSGV 231255Z 26006KT 03/03 A3003 RMK A01 T00330030  RH  099%=      5-min Rain = 0
KSGV 231300Z 26006KT 03/03 A3004 RMK A01 T00310027  RH  099%=      5-min Rain = 0
KSGV 231305Z 26006KT 03/03 A3004 RMK A01 T00290025  RH  098%=      5-min Rain = 0
KSGV 231310Z 26007KT 03/03 A3004 RMK A01 T00300025  RH  098%=      5-min Rain = 0
KSGV 231315Z 27007KT 03/03 A3004 RMK A01 T00320026  RH  097%=      5-min Rain = 0
KSGV 231320Z 27006KT 04/03 A3004 RMK A01 T00360028  RH  096%=      5-min Rain = 0
KSGV 231325Z 27005KT 04/03 A3004 RMK A01 T00390028  RH  094%=      5-min Rain = 0
KSGV 231330Z 27004KT 04/03 A3005 RMK A01 T00420030  RH  093%=      5-min Rain = 0
KSGV 231335Z 27003KT 05/03 A3005 RMK A01 T00450031  RH  092%=      5-min Rain = 0
KSGV 231340Z 28003KT 05/03 A3005 RMK A01 T00490032  RH  091%=      5-min Rain = 0
KSGV 231345Z 29004KT 05/03 A3005 RMK A01 T00520032  RH  089%=      5-min Rain = 0
KSGV 231350Z 29004KT 06/03 A3005 RMK A01 T00550034  RH  087%=      5-min Rain = 0
KSGV 231355Z 29003KT 06/04 A3006 RMK A01 T00600038  RH  087%=      5-min Rain = 0
KSGV 231400Z 29004KT 06/03 A3006 RMK A01 T00630033  RH  083%=      5-min Rain = 0
KSGV 231405Z 29003KT 07/03 A3006 RMK A01 T00680033  RH  080%=      5-min Rain = 0
KSGV 231410Z 29003KT 07/03 A3006 RMK A01 T00710033  RH  078%=      5-min Rain = 0
KSGV 231415Z 30004KT 08/03 A3006 RMK A01 T00760033  RH  076%=      5-min Rain = 0
KSGV 231420Z 29005KT 08/03 A3006 RMK A01 T00780032  RH  074%=      5-min Rain = 0
KSGV 231425Z 30004KT 08/04 A3006 RMK A01 T00820035  RH  073%=      5-min Rain = 0
KSGV 231430Z 31003KT 09/04 A3007 RMK A01 T00880038  RH  073%=      5-min Rain = 0
KSGV 231435Z 31003KT 09/04 A3007 RMK A01 T00940037  RH  069%=      5-min Rain = 0
KSGV 231440Z 30003KT 10/04 A3007 RMK A01 T01010038  RH  066%=      5-min Rain = 0
KSGV 231445Z 29004KT 11/04 A3007 RMK A01 T01080038  RH  063%=      5-min Rain = 0
KSGV 231450Z 29004KT 11/04 A3007 RMK A01 T01130039  RH  062%=      5-min Rain = 0
KSGV 231455Z 29005KT 12/04 A3007 RMK A01 T01190038  RH  059%=      5-min Rain = 0
KSGV 231500Z 29006KT 12/03 A3007 RMK A01 T01220033  RH  056%=      5-min Rain = 0
KSGV 231505Z 29005KT 13/03 A3007 RMK A01 T01280034  RH  054%=      5-min Rain = 0
KSGV 231510Z 30006KT 13/03 A3006 RMK A01 T01340030  RH  050%=      5-min Rain = 0
KSGV 231515Z 30007KT 14/02 A3006 RMK A01 T01410021  RH  045%=      5-min Rain = 0
KSGV 231520Z 29008KT 15/01 A3006 RMK A01 T01450014  RH  042%=      5-min Rain = 0
KSGV 231525Z 29008KT 15/01 A3006 RMK A01 T01500012  RH  040%=      5-min Rain = 0
KSGV 231530Z 29009KT 15/M00 A3007 RMK A01 T01521002  RH  035%=      5-min Rain = 0
KSGV 231535Z 28008KT 16/00 A3006 RMK A01 T01560004  RH  036%=      5-min Rain = 0
KSGV 231540Z 29007KT 16/01 A3006 RMK A01 T01570009  RH  037%=      5-min Rain = 0
KSGV 231545Z 28008KT 16/01 A3006 RMK A01 T01600005  RH  035%=      5-min Rain = 0
KSGV 231550Z 28008G13KT 16/00 A3006 RMK A01 T01600001  RH  034%=      5-min Rain = 0
KSGV 231555Z 28009KT 16/M01 A3006 RMK A01 T01631010  RH  031%=      5-min Rain = 0
KSGV 231600Z 27009KT 17/M02 A3006 RMK A01 T01661015  RH  029%=      5-min Rain = 0
KSGV 231605Z 27010G15KT 17/M02 A3006 RMK A01 T01681023  RH  027%=      5-min Rain = 0
KSGV 231610Z 28011KT 17/M02 A3006 RMK A01 T01671023  RH  027%=      5-min Rain = 0
KSGV 231615Z 28010KT 17/M02 A3006 RMK A01 T01681022  RH  027%=      5-min Rain = 0
KSGV 231620Z 28010KT 17/M03 A3006 RMK A01 T01711026  RH  026%=      5-min Rain = 0
KSGV 231625Z 28012KT 18/M03 A3006 RMK A01 T01751026  RH  025%=      5-min Rain = 0
KSGV 231630Z 28011KT 18/M03 A3006 RMK A01 T01751028  RH  025%=      5-min Rain = 0
KSGV 231635Z 28010G16KT 18/M03 A3006 RMK A01 T01761027  RH  025%=      5-min Rain = 0
KSGV 231640Z 29009KT 18/M03 A3006 RMK A01 T01781027  RH  025%=      5-min Rain = 0
KSGV 231645Z 28010G15KT 18/M03 A3006 RMK A01 T01821026  RH  024%=      5-min Rain = 0
KSGV 231650Z 29010KT 18/M03 A3006 RMK A01 T01831028  RH  024%=      5-min Rain = 0
KSGV 231655Z 28010G15KT 18/M03 A3006 RMK A01 T01811029  RH  024%=      5-min Rain = 0
KSGV 231700Z 29011G16KT 18/M03 A3006 RMK A01 T01831028  RH  024%=      5-min Rain = 0
KSGV 231705Z 28012G17KT 19/M03 A3006 RMK A01 T01851027  RH  024%=      5-min Rain = 0
KSGV 231710Z 28012G17KT 19/M03 A3006 RMK A01 T01871029  RH  023%=      5-min Rain = 0
KSGV 231715Z 29010G15KT 19/M03 A3006 RMK A01 T01881027  RH  023%=      5-min Rain = 0
KSGV 231720Z 29011G16KT 19/M03 A3006 RMK A01 T01871028  RH  023%=      5-min Rain = 0
KSGV 231725Z 28012KT 19/M03 A3005 RMK A01 T01881026  RH  023%=      5-min Rain = 0
KSGV 231730Z 28012G18KT 19/M03 A3005 RMK A01 T01901026  RH  023%=      5-min Rain = 0
KSGV 231735Z 29010KT 19/M03 A3005 RMK A01 T01891025  RH  023%=      5-min Rain = 0
KSGV 231740Z 26012G18KT 20/M02 A3005 RMK A01 T01961024  RH  023%=      5-min Rain = 0
KSGV 231745Z 26012G19KT 20/M03 A3005 RMK A01 T01971026  RH  022%=      5-min Rain = 0
KSGV 231750Z 26011G16KT 20/M03 A3004 RMK A01 T01991025  RH  022%=      5-min Rain = 0
KSGV 231755Z 28012G17KT 20/M03 A3004 RMK A01 T01981026  RH  022%=      5-min Rain = 0
KSGV 231800Z 27011G18KT 20/M02 A3004 RMK A01 T02011024  RH  022%=      5-min Rain = 0
KSGV 231805Z 27012G17KT 21/M02 A3004 RMK A01 T02051023  RH  022%=      5-min Rain = 0
KSGV 231810Z 28011G19KT 20/M03 A3004 RMK A01 T02021027  RH  021%=      5-min Rain = 0
KSGV 231815Z 26012G17KT 20/M03 A3004 RMK A01 T02041029  RH  021%=      5-min Rain = 0
KSGV 231820Z 27013KT 21/M03 A3003 RMK A01 T02071027  RH  021%=      5-min Rain = 0
KSGV 231825Z 26012G18KT 21/M03 A3003 RMK A01 T02071030  RH  020%=      5-min Rain = 0
KSGV 231830Z 26015G22KT 21/M03 A3003 RMK A01 T02121028  RH  020%=      5-min Rain = 0
KSGV 231835Z 25016G23KT 21/M03 A3003 RMK A01 T02111033  RH  019%=      5-min Rain = 0
KSGV 231840Z 25013G18KT 21/M03 A3003 RMK A01 T02101034  RH  019%=      5-min Rain = 0
KSGV 231845Z 26015G21KT 21/M03 A3003 RMK A01 T02101034  RH  019%=      5-min Rain = 0
KSGV 231850Z 26015G23KT 21/M04 A3003 RMK A01 T02081035  RH  019%=      5-min Rain = 0
KSGV 231855Z 27016G21KT 21/M03 A3003 RMK A01 T02111034  RH  019%=      5-min Rain = 0
KSGV 231900Z 26017G26KT 21/M03 A3002 RMK A01 T02141034  RH  019%=      5-min Rain = 0
KSGV 231905Z 25017G22KT 21/M03 A3002 RMK A01 T02141034  RH  019%=      5-min Rain = 0
KSGV 231910Z 25015G20KT 21/M03 A3002 RMK A01 T02121033  RH  019%=      5-min Rain = 0
KSGV 231915Z 26016G21KT 21/M04 A3002 RMK A01 T02121035  RH  019%=      5-min Rain = 0
KSGV 231920Z 27014KT 22/M03 A3002 RMK A01 T02151030  RH  019%=      5-min Rain = 0
KSGV 231925Z 26016G21KT 21/M04 A3001 RMK A01 T02131036  RH  019%=      5-min Rain = 0
KSGV 231930Z 26014G21KT 21/M03 A3001 RMK A01 T02101034  RH  019%=      5-min Rain = 0
KSGV 231935Z 27013G18KT 22/M03 A3001 RMK A01 T02181032  RH  019%=      5-min Rain = 0
KSGV 231940Z 26014G22KT 21/M04 A3001 RMK A01 T02131036  RH  019%=      5-min Rain = 0
KSGV 231945Z 26014G22KT 21/M04 A3001 RMK A01 T02141037  RH  018%=      5-min Rain = 0
KSGV 231950Z 26017G23KT 21/M04 A3001 RMK A01 T02101044  RH  018%=      5-min Rain = 0
KSGV 231955Z 26013KT 21/M05 A3001 RMK A01 T02071046  RH  018%=      5-min Rain = 0
KSGV 232000Z 25016G26KT 21/M04 A3001 RMK A01 T02111043  RH  018%=      5-min Rain = 0
KSGV 232005Z 25017G23KT 21/M05 A3001 RMK A01 T02111048  RH  017%=      5-min Rain = 0
KSGV 232010Z 26015G21KT 22/M04 A3001 RMK A01 T02151043  RH  017%=      5-min Rain = 0
KSGV 232015Z 25015G20KT 22/M04 A3001 RMK A01 T02191042  RH  017%=      5-min Rain = 0
KSGV 232020Z 26012G17KT 22/M04 A30 RMK A01 T02201044  RH  017%=      5-min Rain = 0
KSGV 232025Z 26013G20KT 22/M05 A30 RMK A01 T02201048  RH  016%=      5-min Rain = 0
KSGV 232030Z 23014G19KT 22/M05 A30 RMK A01 T02191047  RH  016%=      5-min Rain = 0
KSGV 232035Z 27015G20KT 22/M04 A30 RMK A01 T02201044  RH  017%=      5-min Rain = 0
KSGV 232040Z 26013G19KT 22/M05 A30 RMK A01 T02191049  RH  016%=      5-min Rain = 0
KSGV 232045Z 24011G19KT 22/M06 A2999 RMK A01 T02211056  RH  015%=      5-min Rain = 0
KSGV 232050Z 25014G20KT 22/M06 A2999 RMK A01 T02211057  RH  015%=      5-min Rain = 0
KSGV 232055Z 25014G22KT 22/M06 A2999 RMK A01 T02201059  RH  015%=      5-min Rain = 0
KSGV 232100Z 25015G21KT 23/M06 A2999 RMK A01 T02251058  RH  015%=      5-min Rain = 0
KSGV 232105Z 25013G20KT 23/M06 A2999 RMK A01 T02261058  RH  015%=      5-min Rain = 0
KSGV 232110Z 26013G20KT 23/M06 A2998 RMK A01 T02251056  RH  015%=      5-min Rain = 0
KSGV 232115Z 26012G20KT 22/M06 A2998 RMK A01 T02221056  RH  015%=      5-min Rain = 0
KSGV 232120Z 26014KT 22/M05 A2998 RMK A01 T02241052  RH  015%=      5-min Rain = 0
KSGV 232125Z 27014G20KT 23/M05 A2998 RMK A01 T02271052  RH  015%=      5-min Rain = 0
KSGV 232130Z 27012G17KT 23/M05 A2998 RMK A01 T02261053  RH  015%=      5-min Rain = 0
KSGV 232135Z 24012G17KT 23/M06 A2998 RMK A01 T02251056  RH  015%=      5-min Rain = 0
KSGV 232140Z 23010G15KT 22/M06 A2998 RMK A01 T02241060  RH  015%=      5-min Rain = 0
KSGV 232145Z 23013KT 23/M06 A2998 RMK A01 T02271063  RH  014%=      5-min Rain = 0
KSGV 232150Z 24014G19KT 23/M06 A2998 RMK A01 T02281064  RH  014%=      5-min Rain = 0
KSGV 232155Z 24012G20KT 23/M07 A2998 RMK A01 T02281068  RH  013%=      5-min Rain = 0
KSGV 232200Z 24012KT 23/M07 A2998 RMK A01 T02281067  RH  013%=      5-min Rain = 0
KSGV 232205Z 25011G17KT 23/M06 A2998 RMK A01 T02311062  RH  014%=      5-min Rain = 0
KSGV 232210Z 24012KT 23/M07 A2998 RMK A01 T02251071  RH  013%=      5-min Rain = 0
KSGV 232215Z 26013KT 22/M07 A2998 RMK A01 T02211072  RH  013%=      5-min Rain = 0
KSGV 232220Z 25013KT 22/M07 A2998 RMK A01 T02201069  RH  014%=      5-min Rain = 0
KSGV 232225Z 25012G17KT 22/M07 A2998 RMK A01 T02201069  RH  014%=      5-min Rain = 0
KSGV 232230Z 24011KT 22/M07 A2997 RMK A01 T02181073  RH  014%=      5-min Rain = 0
KSGV 232235Z 25012KT 22/M07 A2997 RMK A01 T02201067  RH  014%=      5-min Rain = 0
KSGV 232240Z 25014KT 22/M07 A2997 RMK A01 T02201068  RH  014%=      5-min Rain = 0
KSGV 232245Z 25012G17KT 22/M07 A2997 RMK A01 T02181071  RH  014%=      5-min Rain = 0
KSGV 232250Z 26012G17KT 21/M07 A2997 RMK A01 T02141071  RH  014%=      5-min Rain = 0
KSGV 232255Z 25011KT 22/M07 A2996 RMK A01 T02151070  RH  014%=      5-min Rain = 0
KSGV 232300Z 25011KT 22/M06 A2996 RMK A01 T02191064  RH  014%=      5-min Rain = 0
KSGV 232305Z 24011KT 22/M07 A2996 RMK A01 T02201068  RH  014%=      5-min Rain = 0
KSGV 232310Z 25013KT 22/M07 A2996 RMK A01 T02221065  RH  014%=      5-min Rain = 0
KSGV 232315Z 23013KT 22/M07 A2996 RMK A01 T02211069  RH  014%=      5-min Rain = 0
KSGV 232320Z 23010KT 22/M07 A2996 RMK A01 T02181066  RH  014%=      5-min Rain = 0
KSGV 232325Z 25011KT 21/M07 A2996 RMK A01 T02141066  RH  015%=      5-min Rain = 0
KSGV 232330Z 25010KT 21/M07 A2996 RMK A01 T02101066  RH  015%=      5-min Rain = 0
KSGV 232335Z 22010KT 21/M07 A2996 RMK A01 T02081066  RH  015%=      5-min Rain = 0
KSGV 232340Z 24008KT 21/M06 A2996 RMK A01 T02051062  RH  016%=      5-min Rain = 0
KSGV 232345Z 24008KT 20/M06 A2996 RMK A01 T02031060  RH  016%=      5-min Rain = 0
KSGV 232350Z 23007KT 20/M06 A2996 RMK A01 T02031058  RH  017%=      5-min Rain = 0
KSGV 232355Z 23006KT 21/M06 A2996 RMK A01 T02101055  RH  016%=      5-min Rain = 0
KSGV 240000Z 23007KT 22/M06 A2996 RMK A01 T02171058  RH  015%=      5-min Rain = 0
KSGV 240005Z 23007KT 22/M06 A2996 RMK A01 T02161056  RH  016%=      5-min Rain = 0
KSGV 240010Z 23007KT 21/M06 A2996 RMK A01 T02121060  RH  016%=      5-min Rain = 0
KSGV 240015Z 23007KT 21/M06 A2996 RMK A01 T02111059  RH  016%=      5-min Rain = 0
KSGV 240020Z 22007KT 21/M06 A2996 RMK A01 T02071060  RH  016%=      5-min Rain = 0
KSGV 240025Z 23006KT 20/M06 A2996 RMK A01 T02031055  RH  017%=      5-min Rain = 0
KSGV 240030Z 24006KT 20/M05 A2996 RMK A01 T01981047  RH  019%=      5-min Rain = 0
KSGV 240035Z 24005KT 19/M05 A2996 RMK A01 T01931048  RH  019%=      5-min Rain = 0
KSGV 240040Z 23005KT 19/M05 A2996 RMK A01 T01871046  RH  020%=      5-min Rain = 0
KSGV 240045Z 23006KT 18/M04 A2996 RMK A01 T01841041  RH  021%=      5-min Rain = 0
KSGV 240050Z 22006KT 18/M03 A2996 RMK A01 T01791033  RH  024%=      5-min Rain = 0
KSGV 240055Z 22006KT 18/M03 A2996 RMK A01 T01751033  RH  024%=      5-min Rain = 0
KSGV 240100Z 22005KT 17/M03 A2996 RMK A01 T01701030  RH  026%=      5-min Rain = 0
KSGV 240105Z 21004KT 16/M02 A2997 RMK A01 T01621023  RH  028%=      5-min Rain = 0
KSGV 240110Z 23005KT 16/M01 A2997 RMK A01 T01561012  RH  032%=      5-min Rain = 0
KSGV 240115Z 23005KT 16/M02 A2997 RMK A01 T01551019  RH  030%=      5-min Rain = 0
KSGV 240120Z 23005KT 15/M02 A2997 RMK A01 T01501022  RH  031%=      5-min Rain = 0
KSGV 240125Z 23005KT 14/M03 A2997 RMK A01 T01411025  RH  032%=      5-min Rain = 0
KSGV 240130Z 23005KT 13/M03 A2998 RMK A01 T01331026  RH  033%=      5-min Rain = 0
KSGV 240135Z 23004KT 13/M03 A2998 RMK A01 T01291029  RH  033%=      5-min Rain = 0
KSGV 240140Z 22004KT 13/M02 A2998 RMK A01 T01271015  RH  038%=      5-min Rain = 0
KSGV 240145Z 21004KT 12/M02 A2998 RMK A01 T01231016  RH  038%=      5-min Rain = 0
KSGV 240150Z 21005KT 12/M03 A2998 RMK A01 T01241025  RH  036%=      5-min Rain = 0
KSGV 240155Z 21005KT 13/M03 A2999 RMK A01 T01281026  RH  035%=      5-min Rain = 0
KSGV 240200Z 21005KT 12/M02 A2999 RMK A01 T01221022  RH  037%=      5-min Rain = 0
KSGV 240205Z 20005KT 12/M02 A2999 RMK A01 T01231021  RH  037%=      5-min Rain = 0
KSGV 240210Z 20005KT 13/M03 A2999 RMK A01 T01301026  RH  034%=      5-min Rain = 0
KSGV 240215Z 20005KT 13/M03 A2999 RMK A01 T01331026  RH  033%=      5-min Rain = 0
KSGV 240220Z 20005KT 13/M03 A2999 RMK A01 T01311031  RH  032%=      5-min Rain = 0
KSGV 240225Z 20006KT 13/M03 A30 RMK A01 T01271031  RH  033%=      5-min Rain = 0
KSGV 240230Z 20006KT 12/M03 A30 RMK A01 T01211028  RH  036%=      5-min Rain = 0
KSGV 240235Z 19005KT 11/M02 A30 RMK A01 T01131021  RH  039%=      5-min Rain = 0
KSGV 240240Z 19004KT 11/M02 A30 RMK A01 T01071023  RH  041%=      5-min Rain = 0
KSGV 240245Z 21002KT 11/M02 A3001 RMK A01 T01061022  RH  041%=      5-min Rain = 0
KSGV 240250Z 24002KT 10/M01 A3001 RMK A01 T00951009  RH  049%=      5-min Rain = 0
KSGV 240255Z 21003KT 09/M01 A30 RMK A01 T00921011  RH  049%=      5-min Rain = 0
KSGV 240300Z 21003KT 09/M02 A30 RMK A01 T00941017  RH  046%=      5-min Rain = 0
KSGV 240305Z 22002KT 10/M02 A3001 RMK A01 T00981018  RH  045%=      5-min Rain = 0
KSGV 240310Z 23002KT 10/M02 A3001 RMK A01 T01011020  RH  043%=      5-min Rain = 0
KSGV 240315Z 22003KT 10/M02 A3001 RMK A01 T01001018  RH  044%=      5-min Rain = 0
KSGV 240320Z 23002KT 10/M02 A3001 RMK A01 T01001019  RH  044%=      5-min Rain = 0
KSGV 240325Z 22002KT 10/M01 A3001 RMK A01 T00971014  RH  046%=      5-min Rain = 0
KSGV 240330Z 21003KT 09/M02 A3002 RMK A01 T00941021  RH  045%=      5-min Rain = 0
KSGV 240335Z 21003KT 09/M03 A3002 RMK A01 T00931025  RH  044%=      5-min Rain = 0
KSGV 240340Z 21003KT 09/M02 A3002 RMK A01 T00931020  RH  046%=      5-min Rain = 0
KSGV 240345Z 23002KT 09/M02 A3002 RMK A01 T00921021  RH  045%=      5-min Rain = 0
KSGV 240350Z 22003KT 09/M02 A3002 RMK A01 T00911022  RH  046%=      5-min Rain = 0
KSGV 240355Z 22004KT 09/M03 A3002 RMK A01 T00911028  RH  044%=      5-min Rain = 0
KSGV 240400Z 23003KT 09/M02 A3002 RMK A01 T00921024  RH  045%=      5-min Rain = 0
KSGV 240405Z 22003KT 09/M03 A3002 RMK A01 T00881027  RH  045%=      5-min Rain = 0
KSGV 240410Z 24002KT 09/M01 A3002 RMK A01 T00861009  RH  052%=      5-min Rain = 0
KSGV 240415Z 27003KT 08/M00 A3002 RMK A01 T00821002  RH  056%=      5-min Rain = 0
KSGV 240420Z 24003KT 07/M00 A3002 RMK A01 T00721003  RH  060%=      5-min Rain = 0
KSGV 240425Z 22002KT 07/M01 A3002 RMK A01 T00731006  RH  058%=      5-min Rain = 0
KSGV 240430Z 22003KT 08/M01 A3002 RMK A01 T00791011  RH  054%=      5-min Rain = 0
KSGV 240435Z 23003KT 08/M02 A3002 RMK A01 T00831016  RH  050%=      5-min Rain = 0
KSGV 240440Z 22004KT 08/M02 A3002 RMK A01 T00831018  RH  049%=      5-min Rain = 0
KSGV 240445Z 21004KT 09/M02 A3002 RMK A01 T00861022  RH  047%=      5-min Rain = 0
KSGV 240450Z 21004KT 09/M02 A3002 RMK A01 T00881022  RH  046%=      5-min Rain = 0
KSGV 240455Z 21005KT 08/M02 A3002 RMK A01 T00811018  RH  050%=      5-min Rain = 0

Page generated in 0.0356 seconds.